createdAt,value
2018-12-24T00:01:58.673Z,72.80
2018-12-24T00:04:29.007Z,72.80
2018-12-24T00:07:18.060Z,72.94
2018-12-24T00:09:48.341Z,72.75
2018-12-24T00:12:18.275Z,72.74
2018-12-24T00:14:48.266Z,72.65
2018-12-24T00:17:18.566Z,72.70
2018-12-24T00:19:48.923Z,72.77
2018-12-24T00:25:32.956Z,72.94
2018-12-24T00:28:03.685Z,72.82
2018-12-24T00:30:52.593Z,72.63
2018-12-24T00:33:22.537Z,72.41
2018-12-24T00:36:12.131Z,72.38
2018-12-24T00:39:01.818Z,72.43
2018-12-24T00:41:34.234Z,72.47
2018-12-24T00:44:04.177Z,72.45
2018-12-24T00:46:53.777Z,72.39
2018-12-24T00:49:24.132Z,72.37
2018-12-24T00:51:54.378Z,72.39
2018-12-24T00:54:24.655Z,72.32
2018-12-24T00:57:06.840Z,72.27
2018-12-24T00:59:37.125Z,72.22
2018-12-24T01:02:07.590Z,72.07
2018-12-24T01:04:37.788Z,72.06
2018-12-24T01:07:07.856Z,72.25
2018-12-24T01:09:37.783Z,72.40
2018-12-24T01:12:08.288Z,72.59
2018-12-24T01:14:38.207Z,72.56
2018-12-24T01:20:09.541Z,72.62
2018-12-24T01:22:40.020Z,72.74
2018-12-24T01:25:09.975Z,72.81
2018-12-24T01:27:39.921Z,72.69
2018-12-24T01:30:10.085Z,72.70
2018-12-24T01:32:40.286Z,72.81
2018-12-24T01:35:10.306Z,72.78
2018-12-24T01:37:40.240Z,72.95
2018-12-24T01:40:22.443Z,72.91
2018-12-24T01:42:52.695Z,72.94
2018-12-24T01:45:42.134Z,72.99
2018-12-24T01:48:12.075Z,72.91
2018-12-24T01:59:24.124Z,73.02
2018-12-24T02:05:09.802Z,72.98
2018-12-24T02:07:39.808Z,73.09
2018-12-24T02:10:09.717Z,72.96
2018-12-24T02:12:42.381Z,73.01
2018-12-24T02:15:20.316Z,73.14
2018-12-24T02:17:50.243Z,73.18
2018-12-24T02:20:31.877Z,73.17
2018-12-24T02:23:14.811Z,73.32
2018-12-24T02:25:44.720Z,73.32
2018-12-24T02:28:14.645Z,73.01
2018-12-24T02:30:44.603Z,72.82
2018-12-24T02:33:14.858Z,72.76
2018-12-24T02:35:45.184Z,72.61
2018-12-24T02:38:15.317Z,72.77
2018-12-24T02:41:04.454Z,72.95
2018-12-24T02:43:34.971Z,72.98
2018-12-24T02:46:04.941Z,72.83
2018-12-24T02:48:35.091Z,72.65
2018-12-24T02:51:05.067Z,72.62
2018-12-24T02:53:35.264Z,72.80
2018-12-24T02:56:05.222Z,72.67
2018-12-24T02:58:35.381Z,72.40
2018-12-24T03:01:05.881Z,72.55
2018-12-24T03:03:36.097Z,72.57
2018-12-24T03:06:06.510Z,72.55
2018-12-24T03:11:40.920Z,72.47
2018-12-24T03:14:30.103Z,72.60
2018-12-24T03:16:59.607Z,72.45
2018-12-24T03:19:29.208Z,72.25
2018-12-24T03:21:58.954Z,72.24
2018-12-24T03:24:28.462Z,72.24
2018-12-24T03:26:58.554Z,72.15
2018-12-24T03:29:28.063Z,72.11
2018-12-24T03:31:58.182Z,72.13
2018-12-24T03:34:27.720Z,72.19
2018-12-24T03:36:57.588Z,71.96
2018-12-24T03:39:27.528Z,72.00
2018-12-24T03:41:57.083Z,71.96
2018-12-24T03:44:26.583Z,71.85
2018-12-24T03:46:56.075Z,71.94
2018-12-24T03:49:25.569Z,71.79
2018-12-24T03:52:06.988Z,71.43
2018-12-24T03:54:36.798Z,70.84
2018-12-24T03:57:06.869Z,70.67
2018-12-24T03:59:36.747Z,70.59
2018-12-24T04:02:06.252Z,69.87
2018-12-24T04:04:36.399Z,70.24
2018-12-24T04:07:25.178Z,70.22
2018-12-24T04:10:14.312Z,70.00
2018-12-24T04:12:44.434Z,69.21
2018-12-24T04:15:14.223Z,69.90
2018-12-24T04:17:44.039Z,69.74
2018-12-24T04:20:14.050Z,69.60
2018-12-24T04:22:43.659Z,69.33
2018-12-24T04:28:21.495Z,70.09
2018-12-24T04:30:51.319Z,69.56
2018-12-24T04:36:15.174Z,70.02
2018-12-24T04:38:44.684Z,69.82
2018-12-24T04:41:14.599Z,69.66
2018-12-24T04:43:44.519Z,70.09
2018-12-24T04:46:14.012Z,70.59
2018-12-24T04:48:43.602Z,70.38
2018-12-24T04:51:13.098Z,70.44
2018-12-24T04:53:42.590Z,70.73
2018-12-24T04:56:12.098Z,70.35
2018-12-24T04:58:41.603Z,69.64
2018-12-24T05:03:53.457Z,69.55
2018-12-24T05:06:23.598Z,69.92
2018-12-24T05:08:53.081Z,68.83
2018-12-24T05:11:22.926Z,68.29
2018-12-24T05:14:04.631Z,69.05
2018-12-24T05:16:34.551Z,69.09
2018-12-24T05:19:04.301Z,68.79
2018-12-24T05:21:34.335Z,69.27
2018-12-24T05:24:04.366Z,69.07
2018-12-24T05:26:34.328Z,69.20
2018-12-24T05:29:04.470Z,69.01
2018-12-24T05:31:34.852Z,68.67
2018-12-24T05:34:24.196Z,69.29
2018-12-24T05:36:53.789Z,68.99
2018-12-24T05:39:23.281Z,69.06
2018-12-24T05:41:53.133Z,69.16
2018-12-24T05:44:22.917Z,68.75
2018-12-24T05:46:52.712Z,69.50
2018-12-24T05:49:22.339Z,69.09
2018-12-24T05:52:11.415Z,68.90
2018-12-24T05:54:40.917Z,68.96
2018-12-24T05:57:10.439Z,69.05
2018-12-24T05:59:40.219Z,68.57
2018-12-24T06:02:10.043Z,68.92
2018-12-24T06:04:39.794Z,69.00
2018-12-24T06:07:09.993Z,68.88
2018-12-24T06:09:39.561Z,68.44
2018-12-24T06:12:09.087Z,68.68
2018-12-24T06:17:27.135Z,68.85
2018-12-24T06:20:08.703Z,69.25
2018-12-24T06:23:18.310Z,69.06
2018-12-24T06:26:07.103Z,69.03
2018-12-24T06:28:37.291Z,69.11
2018-12-24T06:31:06.878Z,69.32
2018-12-24T06:33:36.378Z,69.21
2018-12-24T06:36:25.812Z,69.52
2018-12-24T06:38:55.320Z,69.37
2018-12-24T06:41:24.994Z,69.60
2018-12-24T06:43:54.902Z,69.84
2018-12-24T06:46:43.682Z,69.34
2018-12-24T06:49:13.426Z,68.89
2018-12-24T06:51:42.919Z,68.49
2018-12-24T06:54:12.796Z,68.66
2018-12-24T06:56:42.614Z,67.97
2018-12-24T06:59:12.437Z,68.54
2018-12-24T07:01:42.197Z,67.47
2018-12-24T07:04:13.679Z,67.58
2018-12-24T07:06:43.198Z,68.29
2018-12-24T07:09:12.694Z,66.60
2018-12-24T07:11:42.429Z,66.04
2018-12-24T07:14:15.574Z,65.96
2018-12-24T07:16:48.554Z,65.55
2018-12-24T07:19:18.491Z,65.94
2018-12-24T07:21:48.300Z,64.74
2018-12-24T07:27:19.011Z,65.80
2018-12-24T07:29:48.631Z,65.89
2018-12-24T07:32:18.853Z,66.65
2018-12-24T07:34:48.503Z,65.85
2018-12-24T07:37:18.440Z,66.16
2018-12-24T07:39:48.521Z,66.49
2018-12-24T07:42:18.382Z,67.02
2018-12-24T07:44:47.903Z,67.81
2018-12-24T07:47:17.422Z,67.88
2018-12-24T07:49:47.017Z,66.95
2018-12-24T07:52:16.545Z,66.68
2018-12-24T07:54:46.065Z,67.17
2018-12-24T07:57:15.551Z,67.33
2018-12-24T08:02:47.858Z,67.62
2018-12-24T08:05:29.859Z,67.34
2018-12-24T08:07:59.408Z,67.36
2018-12-24T08:10:29.289Z,66.70
2018-12-24T08:15:40.212Z,66.25
2018-12-24T08:18:10.562Z,66.36
2018-12-24T08:20:40.086Z,67.21
2018-12-24T08:23:09.882Z,66.28
2018-12-24T08:25:39.718Z,66.28
2018-12-24T08:28:09.229Z,66.78
2018-12-24T08:30:38.764Z,66.41
2018-12-24T08:33:08.365Z,66.63
2018-12-24T08:35:38.405Z,66.96
2018-12-24T08:38:08.463Z,66.73
2018-12-24T08:40:38.424Z,66.77
2018-12-24T08:43:08.569Z,67.03
2018-12-24T08:45:38.647Z,67.21
2018-12-24T08:48:08.617Z,66.95
2018-12-24T08:50:38.615Z,66.92
2018-12-24T08:53:08.421Z,67.05
2018-12-24T08:58:33.136Z,67.09
2018-12-24T09:01:02.665Z,66.93
2018-12-24T09:03:32.408Z,67.54
2018-12-24T09:06:02.197Z,67.54
2018-12-24T09:11:19.871Z,68.31
2018-12-24T09:13:49.392Z,67.64
2018-12-24T09:16:19.604Z,67.58
2018-12-24T09:18:49.323Z,69.23
2018-12-24T09:24:00.572Z,68.72
2018-12-24T09:26:30.418Z,69.17
2018-12-24T09:28:59.912Z,69.30
2018-12-24T09:31:29.748Z,68.66
2018-12-24T09:33:59.968Z,68.62
2018-12-24T09:36:49.368Z,68.70
2018-12-24T09:39:18.871Z,68.92
2018-12-24T09:41:48.751Z,67.83
2018-12-24T09:44:18.500Z,68.14
2018-12-24T09:46:48.101Z,68.02
2018-12-24T09:49:17.975Z,68.97
2018-12-24T09:51:47.797Z,68.99
2018-12-24T09:54:17.605Z,69.02
2018-12-24T09:56:47.136Z,68.62
2018-12-24T09:59:16.686Z,68.79
2018-12-24T10:01:46.254Z,69.04
2018-12-24T10:08:27.090Z,69.06
2018-12-24T10:10:56.603Z,68.42
2018-12-24T10:13:26.503Z,68.64
2018-12-24T10:18:57.112Z,69.21
2018-12-24T10:21:27.111Z,68.92
2018-12-24T10:24:16.181Z,68.35
2018-12-24T10:26:46.064Z,68.17
2018-12-24T10:29:15.682Z,68.82
2018-12-24T10:31:45.514Z,67.52
2018-12-24T10:34:15.491Z,67.59
2018-12-24T10:37:04.279Z,67.52
2018-12-24T10:39:46.307Z,67.74
2018-12-24T10:42:27.614Z,67.26
2018-12-24T10:51:23.398Z,68.00
2018-12-24T10:53:53.348Z,66.29
2018-12-24T10:56:23.154Z,65.51
2018-12-24T10:58:52.883Z,63.78
2018-12-24T11:01:22.675Z,65.20
2018-12-24T11:03:52.507Z,64.99
2018-12-24T11:06:22.068Z,63.50
2018-12-24T11:08:51.626Z,64.65
2018-12-24T11:11:21.482Z,63.73
2018-12-24T11:13:50.936Z,63.28
2018-12-24T11:16:33.228Z,62.88
2018-12-24T11:19:04.063Z,64.24
2018-12-24T11:21:34.101Z,63.60
2018-12-24T11:24:03.674Z,63.26
2018-12-24T11:26:33.169Z,62.05
2018-12-24T11:29:02.951Z,62.03
2018-12-24T11:34:40.615Z,63.27
2018-12-24T11:37:10.483Z,63.16
2018-12-24T11:39:48.227Z,62.92
2018-12-24T11:42:18.075Z,61.25
2018-12-24T11:44:47.896Z,62.06
2018-12-24T11:47:17.727Z,62.16
2018-12-24T11:50:06.364Z,62.23
2018-12-24T11:52:35.902Z,62.46
2018-12-24T11:55:05.768Z,62.84
2018-12-24T11:57:36.991Z,60.93
2018-12-24T12:00:25.646Z,62.70
2018-12-24T12:02:55.239Z,61.32
2018-12-24T12:05:24.821Z,60.25
2018-12-24T12:07:54.435Z,61.24
2018-12-24T12:10:24.008Z,61.14
2018-12-24T12:15:42.376Z,60.45
2018-12-24T12:18:11.582Z,61.47
2018-12-24T12:20:42.175Z,61.50
2018-12-24T12:23:12.320Z,61.79
2018-12-24T12:25:41.901Z,61.28
2018-12-24T12:28:11.422Z,61.26
2018-12-24T12:30:40.987Z,60.76
2018-12-24T12:33:10.998Z,61.14
2018-12-24T12:35:46.292Z,60.52
2018-12-24T12:38:16.600Z,59.57
2018-12-24T12:40:46.239Z,57.54
2018-12-24T12:43:15.755Z,58.40
2018-12-24T12:45:51.277Z,58.79
2018-12-24T12:48:21.899Z,59.39
2018-12-24T12:53:40.512Z,60.41
2018-12-24T12:56:09.996Z,60.60
2018-12-24T12:58:39.866Z,60.28
2018-12-24T13:01:09.884Z,60.77
2018-12-24T13:06:29.279Z,59.64
2018-12-24T13:08:58.803Z,59.98
2018-12-24T13:11:28.309Z,60.29
2018-12-24T13:13:58.092Z,60.68
2018-12-24T13:16:27.903Z,60.75
2018-12-24T13:18:57.695Z,60.87
2018-12-24T13:21:27.537Z,61.25
2018-12-24T13:23:57.070Z,61.46
2018-12-24T13:26:26.841Z,61.30
2018-12-24T13:29:15.631Z,61.25
2018-12-24T13:31:46.096Z,61.47
2018-12-24T13:34:16.156Z,61.65
2018-12-24T13:36:46.155Z,61.72
2018-12-24T13:39:16.064Z,61.67
2018-12-24T13:41:46.043Z,61.39
2018-12-24T13:44:16.075Z,61.42
2018-12-24T13:46:47.189Z,61.06
2018-12-24T13:49:16.695Z,61.19
2018-12-24T13:51:46.606Z,61.07
2018-12-24T13:54:17.329Z,61.10
2018-12-24T13:56:47.154Z,60.97
2018-12-24T13:59:16.673Z,61.51
2018-12-24T14:01:46.857Z,60.76
2018-12-24T14:04:16.976Z,60.67
2018-12-24T14:06:46.623Z,60.99
2018-12-24T14:09:16.960Z,61.45
2018-12-24T14:14:27.988Z,60.87
2018-12-24T14:16:57.630Z,60.49
2018-12-24T14:19:27.198Z,60.88
2018-12-24T14:27:02.958Z,61.31
2018-12-24T14:29:32.842Z,61.23
2018-12-24T14:32:02.648Z,61.21
2018-12-24T14:34:32.216Z,61.00
2018-12-24T14:37:03.314Z,61.35
2018-12-24T14:39:33.091Z,60.96
2018-12-24T14:42:03.400Z,61.30
2018-12-24T14:44:33.148Z,61.19
2018-12-24T14:47:02.664Z,61.32
2018-12-24T14:49:32.443Z,61.26
2018-12-24T14:52:01.922Z,61.21
2018-12-24T14:54:31.466Z,60.48
2018-12-24T14:57:01.567Z,61.59
2018-12-24T14:59:31.086Z,61.37
2018-12-24T15:02:00.572Z,61.60
2018-12-24T15:04:30.098Z,62.11
2018-12-24T15:07:00.171Z,61.25
2018-12-24T15:12:12.728Z,61.55
2018-12-24T15:14:42.769Z,61.83
2018-12-24T15:25:16.986Z,62.52
2018-12-24T15:27:46.494Z,62.46
2018-12-24T15:30:16.002Z,62.21
2018-12-24T15:33:05.852Z,62.26
2018-12-24T15:35:35.687Z,61.77
2018-12-24T15:38:17.532Z,62.12
2018-12-24T15:40:47.901Z,62.26
2018-12-24T15:43:37.044Z,62.57
2018-12-24T15:46:06.617Z,62.63
2018-12-24T15:51:31.062Z,63.12
2018-12-24T15:54:00.774Z,62.72
2018-12-24T15:56:30.305Z,62.18
2018-12-24T15:58:59.836Z,63.25
2018-12-24T16:01:29.704Z,63.11
2018-12-24T16:03:59.327Z,62.82
2018-12-24T16:06:28.855Z,63.11
2018-12-24T16:08:59.079Z,63.15
2018-12-24T16:11:28.661Z,63.66
2018-12-24T16:13:58.352Z,63.29
2018-12-24T16:16:28.288Z,63.51
2018-12-24T16:18:57.917Z,63.18
2018-12-24T16:21:27.527Z,63.25
2018-12-24T16:24:18.149Z,63.63
2018-12-24T16:26:47.958Z,63.71
2018-12-24T16:29:18.119Z,63.31
2018-12-24T16:32:06.701Z,63.13
2018-12-24T16:34:36.584Z,63.48
2018-12-24T16:37:06.206Z,63.51
2018-12-24T16:39:35.714Z,63.84
2018-12-24T16:44:46.254Z,63.94
2018-12-24T16:47:15.983Z,64.46
2018-12-24T16:52:34.211Z,64.20
2018-12-24T16:55:03.794Z,63.45
2018-12-24T16:57:33.495Z,64.29
2018-12-24T17:00:03.469Z,63.54
2018-12-24T17:02:33.365Z,63.89
2018-12-24T17:05:02.933Z,63.82
2018-12-24T17:07:32.582Z,63.40
2018-12-24T17:10:02.197Z,64.21
2018-12-24T17:15:21.982Z,64.11
2018-12-24T17:17:52.321Z,64.17
2018-12-24T17:20:22.214Z,64.21
2018-12-24T17:23:04.646Z,64.09
2018-12-24T17:25:34.286Z,64.53
2018-12-24T17:28:03.837Z,64.79
2018-12-24T17:30:34.078Z,64.68
2018-12-24T17:33:03.856Z,65.41
2018-12-24T17:38:15.095Z,66.79
2018-12-24T17:40:45.020Z,68.57
2018-12-24T17:43:14.608Z,66.49
2018-12-24T17:45:44.304Z,67.11
2018-12-24T17:48:13.904Z,66.75
2018-12-24T17:50:44.143Z,67.38
2018-12-24T17:53:13.651Z,67.28
2018-12-24T17:55:43.241Z,67.04
2018-12-24T17:58:13.187Z,67.28
2018-12-24T18:00:43.070Z,67.30
2018-12-24T18:03:12.629Z,67.32
2018-12-24T18:05:42.182Z,67.73
2018-12-24T18:08:11.694Z,67.74
2018-12-24T18:10:41.323Z,67.99
2018-12-24T18:13:30.099Z,68.24
2018-12-24T18:15:59.677Z,68.50
2018-12-24T18:18:29.226Z,68.66
2018-12-24T18:20:59.110Z,68.61
2018-12-24T18:26:32.100Z,69.89
2018-12-24T18:29:01.636Z,70.40
2018-12-24T18:31:32.901Z,68.99
2018-12-24T18:34:03.063Z,69.25
2018-12-24T18:36:32.928Z,69.65
2018-12-24T18:44:45.567Z,69.06
2018-12-24T18:47:15.148Z,68.82
2018-12-24T18:49:44.927Z,68.66
2018-12-24T18:52:14.929Z,69.08
2018-12-24T18:54:44.538Z,70.34
2018-12-24T18:57:16.274Z,69.21
2018-12-24T18:59:46.118Z,68.79
2018-12-24T19:02:15.719Z,69.55
2018-12-24T19:04:45.565Z,69.96
2018-12-24T19:07:15.128Z,69.72
2018-12-24T19:09:45.803Z,69.63
2018-12-24T19:12:34.709Z,69.94
2018-12-24T19:15:04.339Z,69.70
2018-12-24T19:17:41.289Z,69.53
2018-12-24T19:20:24.763Z,69.14
2018-12-24T19:23:14.073Z,69.04
2018-12-24T19:25:43.870Z,69.25
2018-12-24T19:28:13.518Z,69.14
2018-12-24T19:30:43.492Z,69.22
2018-12-24T19:33:13.508Z,69.15
2018-12-24T19:35:42.986Z,68.88
2018-12-24T19:38:24.423Z,69.11
2018-12-24T19:40:54.851Z,69.14
2018-12-24T19:43:24.891Z,69.03
2018-12-24T19:45:55.261Z,69.14
2018-12-24T19:48:25.366Z,69.43
2018-12-24T19:50:56.903Z,69.33
2018-12-24T19:53:26.538Z,69.21
2018-12-24T19:56:15.357Z,69.38
2018-12-24T19:58:44.950Z,69.65
2018-12-24T20:01:14.823Z,69.46
2018-12-24T20:03:44.378Z,69.51
2018-12-24T20:06:13.887Z,69.85
2018-12-24T20:08:43.451Z,69.75
2018-12-24T20:11:13.054Z,69.66
2018-12-24T20:16:34.289Z,69.81
2018-12-24T20:19:04.299Z,69.79
2018-12-24T20:21:34.138Z,69.71
2018-12-24T20:26:58.008Z,70.10
2018-12-24T20:29:28.044Z,70.04
2018-12-24T20:31:57.544Z,70.15
2018-12-24T20:34:27.172Z,69.95
2018-12-24T20:37:16.447Z,70.03
2018-12-24T20:39:45.956Z,70.31
2018-12-24T20:42:16.157Z,70.28
2018-12-24T20:44:46.022Z,70.35
2018-12-24T20:47:15.569Z,70.28
2018-12-24T20:49:45.115Z,70.31
2018-12-24T20:52:14.728Z,70.22
2018-12-24T20:54:44.647Z,70.39
2018-12-24T20:57:14.196Z,70.53
2018-12-24T20:59:44.027Z,70.58
2018-12-24T21:02:13.542Z,70.37
2018-12-24T21:04:43.149Z,70.47
2018-12-24T21:07:12.682Z,70.45
2018-12-24T21:10:01.259Z,70.44
2018-12-24T21:12:31.153Z,70.37
2018-12-24T21:15:01.043Z,70.31
2018-12-24T21:17:30.652Z,70.32
2018-12-24T21:23:09.050Z,70.59
2018-12-24T21:25:40.902Z,70.65
2018-12-24T21:28:12.452Z,70.59
2018-12-24T21:31:01.298Z,70.23
2018-12-24T21:33:50.412Z,70.33
2018-12-24T21:36:25.893Z,70.09
2018-12-24T21:38:55.855Z,70.04
2018-12-24T21:41:44.687Z,70.03
2018-12-24T21:44:14.518Z,70.00
2018-12-24T21:46:44.103Z,69.77
2018-12-24T21:49:13.649Z,69.59
2018-12-24T21:51:43.201Z,69.42
2018-12-24T21:54:24.807Z,69.24
2018-12-24T21:56:55.135Z,69.11
2018-12-24T21:59:24.775Z,68.96
2018-12-24T22:01:54.378Z,68.84
2018-12-24T22:04:23.966Z,68.59
2018-12-24T22:06:53.669Z,68.62
2018-12-24T22:09:23.810Z,68.62
2018-12-24T22:12:12.896Z,68.42
2018-12-24T22:14:42.862Z,68.54
2018-12-24T22:17:12.575Z,68.31
2018-12-24T22:19:42.916Z,68.23
2018-12-24T22:22:12.441Z,68.01
2018-12-24T22:24:42.215Z,67.91
2018-12-24T22:27:12.648Z,67.85
2018-12-24T22:29:42.167Z,67.60
2018-12-24T22:32:11.705Z,67.57
2018-12-24T22:34:41.377Z,67.61
2018-12-24T22:37:11.046Z,67.66
2018-12-24T22:39:40.666Z,67.40
2018-12-24T22:42:17.443Z,67.21
2018-12-24T22:44:47.319Z,67.22
2018-12-24T22:47:37.013Z,67.18
2018-12-24T22:50:07.387Z,67.16
2018-12-24T22:52:37.215Z,67.02
2018-12-24T22:55:06.873Z,67.12
2018-12-24T22:57:37.338Z,67.09
2018-12-24T23:00:48.512Z,67.11
2018-12-24T23:03:19.763Z,67.28
2018-12-24T23:05:49.722Z,67.10
2018-12-24T23:08:19.967Z,67.26
2018-12-24T23:10:50.153Z,67.03
2018-12-24T23:13:41.444Z,67.22
2018-12-24T23:16:10.947Z,67.05
2018-12-24T23:18:49.185Z,67.22
2018-12-24T23:21:31.267Z,66.92
2018-12-24T23:24:01.272Z,66.99
2018-12-24T23:26:31.091Z,66.67
2018-12-24T23:31:57.302Z,67.03
2018-12-24T23:34:27.001Z,67.10
2018-12-24T23:40:11.402Z,67.29
2018-12-24T23:42:41.473Z,67.41
2018-12-24T23:45:11.265Z,67.00
2018-12-24T23:47:44.440Z,67.33
2018-12-24T23:50:14.033Z,67.55
2018-12-24T23:56:22.854Z,67.29
2018-12-24T23:58:52.508Z,67.24
